createdAt,value
2023-03-24T00:00:54.670Z,91.44
2023-03-24T00:01:54.635Z,91.35
2023-03-24T00:02:54.706Z,91.35
2023-03-24T00:03:54.682Z,91.65
2023-03-24T00:04:54.611Z,91.55
2023-03-24T00:05:54.625Z,91.75
2023-03-24T00:06:54.609Z,91.35
2023-03-24T00:07:55.413Z,91.44
2023-03-24T00:08:54.581Z,91.65
2023-03-24T00:09:54.589Z,91.75
2023-03-24T00:10:54.569Z,92.05
2023-03-24T00:11:54.579Z,92.05
2023-03-24T00:12:54.567Z,92.16
2023-03-24T00:13:54.557Z,92.16
2023-03-24T00:14:54.549Z,92.36
2023-03-24T00:15:54.549Z,92.36
2023-03-24T00:16:54.554Z,91.75
2023-03-24T00:17:54.541Z,92.57
2023-03-24T00:18:54.590Z,92.16
2023-03-24T00:19:54.512Z,92.46
2023-03-24T00:20:54.512Z,92.36
2023-03-24T00:21:54.498Z,92.87
2023-03-24T00:22:54.496Z,93.22
2023-03-24T00:23:54.528Z,92.87
2023-03-24T00:24:54.485Z,93.32
2023-03-24T00:25:54.478Z,93.12
2023-03-24T00:26:54.477Z,93.32
2023-03-24T00:27:54.468Z,93.52
2023-03-24T00:28:54.485Z,93.52
2023-03-24T00:29:54.451Z,93.84
2023-03-24T00:30:54.480Z,93.93
2023-03-24T00:31:54.441Z,93.52
2023-03-24T00:32:54.440Z,92.87
2023-03-24T00:33:54.432Z,93.07
2023-03-24T00:34:54.447Z,93.02
2023-03-24T00:35:54.465Z,93.52
2023-03-24T00:36:54.395Z,93.63
2023-03-24T00:37:54.392Z,93.73
2023-03-24T00:38:54.391Z,93.93
2023-03-24T00:39:54.391Z,94.14
2023-03-24T00:40:54.389Z,93.93
2023-03-24T00:41:54.375Z,94.14
2023-03-24T00:42:54.367Z,93.84
2023-03-24T00:43:54.360Z,94.34
2023-03-24T00:44:54.364Z,94.29
2023-03-24T00:45:54.357Z,94.34
2023-03-24T00:46:54.343Z,94.34
2023-03-24T00:47:54.813Z,94.34
2023-03-24T00:48:54.319Z,94.55
2023-03-24T00:49:54.344Z,95.16
2023-03-24T00:50:54.318Z,95.67
2023-03-24T00:51:54.312Z,95.36
2023-03-24T00:52:54.336Z,95.26
2023-03-24T00:53:54.300Z,95.10
2023-03-24T00:54:54.293Z,95.20
2023-03-24T00:55:54.297Z,95.51
2023-03-24T00:56:54.309Z,95.31
2023-03-24T00:57:54.287Z,96.12
2023-03-24T00:58:54.269Z,96.33
2023-03-24T00:59:54.260Z,96.94
2023-03-24T01:00:54.282Z,96.73
2023-03-24T01:01:54.250Z,96.43
2023-03-24T01:02:54.408Z,96.84
2023-03-24T01:03:54.286Z,96.43
2023-03-24T01:04:54.251Z,97.45
2023-03-24T01:05:54.217Z,96.58
2023-03-24T01:06:54.210Z,96.88
2023-03-24T01:07:54.205Z,97.60
2023-03-24T01:08:54.215Z,97.24
2023-03-24T01:09:54.179Z,97.70
2023-03-24T01:10:54.199Z,96.98
2023-03-24T01:11:54.212Z,97.60
2023-03-24T01:12:54.205Z,98.21
2023-03-24T01:13:54.191Z,97.90
2023-03-24T01:14:54.251Z,97.44
2023-03-24T01:15:54.203Z,98.00
2023-03-24T01:16:54.152Z,97.80
2023-03-24T01:17:54.184Z,97.80
2023-03-24T01:18:54.148Z,98.11
2023-03-24T01:19:54.182Z,98.52
2023-03-24T01:20:54.142Z,98.36
2023-03-24T01:21:54.098Z,98.31
2023-03-24T01:22:54.089Z,98.41
2023-03-24T01:23:54.100Z,98.11
2023-03-24T01:24:54.090Z,98.25
2023-03-24T01:25:54.093Z,97.85
2023-03-24T01:26:54.071Z,98.21
2023-03-24T01:27:54.098Z,98.00
2023-03-24T01:28:54.069Z,97.90
2023-03-24T01:29:54.047Z,98.05
2023-03-24T01:30:54.074Z,98.00
2023-03-24T01:31:54.112Z,98.00
2023-03-24T01:32:55.068Z,98.15
2023-03-24T01:33:54.022Z,98.21
2023-03-24T01:34:54.022Z,98.11
2023-03-24T01:35:54.061Z,98.11
2023-03-24T01:36:54.016Z,97.64
2023-03-24T01:37:53.996Z,98.21
2023-03-24T01:38:54.006Z,98.11
2023-03-24T01:39:53.986Z,98.00
2023-03-24T01:40:54.966Z,97.90
2023-03-24T01:41:53.973Z,97.95
2023-03-24T01:42:53.960Z,97.80
2023-03-24T01:43:53.953Z,97.29
2023-03-24T01:44:54.207Z,97.19
2023-03-24T01:45:53.992Z,97.19
2023-03-24T01:46:53.951Z,97.08
2023-03-24T01:47:53.966Z,97.08
2023-03-24T01:48:53.922Z,98.00
2023-03-24T01:49:53.922Z,97.49
2023-03-24T01:50:53.919Z,97.70
2023-03-24T01:51:53.902Z,98.11
2023-03-24T01:52:53.896Z,97.19
2023-03-24T01:53:53.886Z,97.39
2023-03-24T01:54:53.907Z,97.08
2023-03-24T01:55:53.878Z,97.49
2023-03-24T01:56:53.936Z,97.14
2023-03-24T01:57:53.869Z,96.68
2023-03-24T01:58:53.890Z,96.88
2023-03-24T01:59:53.847Z,96.88
2023-03-24T02:00:53.875Z,97.19
2023-03-24T02:01:53.855Z,97.29
2023-03-24T02:02:53.886Z,97.14
2023-03-24T02:03:53.854Z,97.19
2023-03-24T02:04:53.809Z,96.88
2023-03-24T02:05:53.815Z,97.04
2023-03-24T02:06:53.811Z,97.49
2023-03-24T02:07:53.806Z,97.29
2023-03-24T02:08:53.791Z,97.29
2023-03-24T02:09:53.796Z,97.24
2023-03-24T02:10:53.775Z,97.45
2023-03-24T02:11:53.787Z,96.43
2023-03-24T02:12:54.117Z,96.84
2023-03-24T02:13:54.740Z,96.53
2023-03-24T02:14:53.746Z,97.45
2023-03-24T02:15:53.792Z,97.08
2023-03-24T02:16:53.735Z,96.63
2023-03-24T02:17:53.811Z,97.14
2023-03-24T02:18:53.730Z,96.84
2023-03-24T02:19:53.723Z,97.24
2023-03-24T02:20:53.710Z,97.08
2023-03-24T02:21:53.705Z,96.88
2023-03-24T02:22:53.706Z,97.90
2023-03-24T02:23:53.707Z,97.29
2023-03-24T02:24:53.690Z,97.60
2023-03-24T02:25:53.674Z,98.21
2023-03-24T02:26:53.680Z,98.93
2023-03-24T02:27:53.662Z,96.98
2023-03-24T02:28:53.674Z,96.98
2023-03-24T02:29:53.655Z,96.94
2023-03-24T02:30:53.643Z,97.60
2023-03-24T02:31:53.709Z,97.19
2023-03-24T02:32:53.700Z,97.39
2023-03-24T02:33:53.633Z,97.70
2023-03-24T02:34:53.615Z,97.49
2023-03-24T02:35:53.643Z,96.98
2023-03-24T02:36:53.610Z,96.98
2023-03-24T02:37:53.591Z,97.80
2023-03-24T02:38:53.612Z,97.45
2023-03-24T02:39:53.623Z,97.60
2023-03-24T02:40:53.577Z,97.60
2023-03-24T02:41:53.571Z,97.96
2023-03-24T02:42:53.567Z,97.08
2023-03-24T02:43:53.579Z,97.45
2023-03-24T02:44:53.557Z,97.45
2023-03-24T02:45:53.563Z,97.70
2023-03-24T02:46:53.540Z,97.39
2023-03-24T02:47:53.577Z,96.98
2023-03-24T02:48:53.525Z,97.24
2023-03-24T02:49:53.527Z,97.24
2023-03-24T02:50:53.513Z,97.08
2023-03-24T02:51:53.499Z,96.84
2023-03-24T02:52:53.494Z,97.24
2023-03-24T02:53:53.493Z,96.98
2023-03-24T02:54:53.519Z,98.72
2023-03-24T02:55:53.468Z,97.65
2023-03-24T02:56:53.514Z,97.60
2023-03-24T02:57:53.462Z,98.11
2023-03-24T02:58:53.453Z,98.11
2023-03-24T02:59:53.479Z,98.21
2023-03-24T03:00:53.437Z,98.21
2023-03-24T03:01:53.486Z,97.90
2023-03-24T03:02:53.450Z,98.00
2023-03-24T03:03:53.466Z,98.00
2023-03-24T03:04:53.425Z,97.70
2023-03-24T03:05:53.426Z,98.21
2023-03-24T03:06:53.417Z,98.61
2023-03-24T03:07:53.387Z,98.93
2023-03-24T03:08:53.400Z,99.02
2023-03-24T03:09:53.387Z,98.72
2023-03-24T03:10:53.375Z,98.72
2023-03-24T03:11:53.383Z,98.93
2023-03-24T03:12:53.368Z,98.72
2023-03-24T03:13:53.363Z,99.02
2023-03-24T03:14:53.339Z,98.72
2023-03-24T03:15:53.400Z,98.72
2023-03-24T03:16:53.352Z,98.82
2023-03-24T03:17:53.471Z,98.82
2023-03-24T03:18:53.317Z,98.93
2023-03-24T03:19:53.313Z,97.70
2023-03-24T03:20:53.351Z,98.21
2023-03-24T03:21:53.321Z,97.60
2023-03-24T03:22:53.298Z,97.49
2023-03-24T03:23:53.288Z,98.68
2023-03-24T03:24:53.303Z,97.70
2023-03-24T03:25:53.274Z,98.82
2023-03-24T03:26:53.295Z,97.19
2023-03-24T03:27:53.260Z,97.70
2023-03-24T03:28:53.258Z,97.19
2023-03-24T03:29:53.249Z,96.63
2023-03-24T03:30:53.270Z,97.29
2023-03-24T03:31:53.264Z,97.49
2023-03-24T03:32:53.319Z,97.19
2023-03-24T03:33:53.248Z,97.34
2023-03-24T03:34:53.221Z,97.08
2023-03-24T03:35:53.257Z,97.29
2023-03-24T03:36:53.210Z,97.39
2023-03-24T03:37:53.218Z,97.49
2023-03-24T03:38:53.189Z,97.70
2023-03-24T03:39:53.187Z,97.39
2023-03-24T03:40:53.187Z,97.95
2023-03-24T03:41:53.177Z,97.49
2023-03-24T03:42:53.191Z,97.29
2023-03-24T03:43:53.158Z,97.19
2023-03-24T03:44:53.162Z,97.64
2023-03-24T03:45:53.203Z,97.60
2023-03-24T03:46:53.149Z,97.19
2023-03-24T03:47:53.155Z,96.68
2023-03-24T03:48:53.139Z,97.24
2023-03-24T03:49:53.157Z,97.90
2023-03-24T03:50:59.885Z,97.74
2023-03-24T03:51:55.107Z,97.29
2023-03-24T03:52:53.114Z,97.70
2023-03-24T03:53:53.107Z,97.33
2023-03-24T03:54:53.105Z,97.64
2023-03-24T03:55:53.086Z,97.54
2023-03-24T03:56:53.094Z,97.19
2023-03-24T03:57:53.077Z,97.44
2023-03-24T03:58:53.082Z,97.29
2023-03-24T03:59:53.067Z,98.41
2023-03-24T04:00:53.070Z,97.80
2023-03-24T04:01:53.055Z,97.74
2023-03-24T04:02:53.132Z,98.15
2023-03-24T04:03:53.087Z,97.74
2023-03-24T04:04:59.776Z,98.36
2023-03-24T04:05:55.044Z,98.97
2023-03-24T04:06:53.024Z,99.27
2023-03-24T04:07:53.013Z,98.97
2023-03-24T04:08:53.004Z,98.77
2023-03-24T04:09:52.995Z,99.07
2023-03-24T04:10:53.997Z,98.86
2023-03-24T04:11:52.995Z,99.07
2023-03-24T04:12:52.978Z,99.27
2023-03-24T04:13:52.971Z,99.27
2023-03-24T04:14:52.977Z,99.38
2023-03-24T04:15:53.007Z,99.63
2023-03-24T04:16:52.946Z,99.48
2023-03-24T04:17:53.992Z,99.48
2023-03-24T04:18:52.933Z,99.48
2023-03-24T04:19:52.924Z,99.48
2023-03-24T04:20:52.986Z,99.99
2023-03-24T04:21:52.905Z,99.58
2023-03-24T04:22:52.920Z,99.79
2023-03-24T04:23:52.900Z,99.48
2023-03-24T04:24:52.899Z,99.18
2023-03-24T04:25:52.884Z,99.89
2023-03-24T04:26:52.877Z,99.27
2023-03-24T04:27:52.905Z,99.58
2023-03-24T04:28:52.869Z,99.48
2023-03-24T04:29:52.853Z,99.27
2023-03-24T04:30:52.873Z,99.68
2023-03-24T04:31:52.930Z,99.79
2023-03-24T04:32:53.878Z,99.68
2023-03-24T04:33:52.837Z,99.38
2023-03-24T04:34:52.821Z,99.48
2023-03-24T04:35:52.849Z,99.79
2023-03-24T04:36:52.827Z,99.68
2023-03-24T04:37:52.819Z,99.27
2023-03-24T04:38:52.803Z,99.27
2023-03-24T04:39:52.790Z,98.97
2023-03-24T04:40:52.792Z,98.82
2023-03-24T04:41:52.793Z,99.07
2023-03-24T04:42:52.912Z,98.52
2023-03-24T04:43:52.760Z,98.93
2023-03-24T04:44:52.758Z,99.02
2023-03-24T04:45:52.771Z,99.02
2023-03-24T04:46:52.752Z,98.82
2023-03-24T04:47:52.789Z,98.97
2023-03-24T04:48:52.747Z,99.02
2023-03-24T04:49:52.731Z,98.93
2023-03-24T04:50:52.723Z,98.86
2023-03-24T04:51:52.723Z,98.61
2023-03-24T04:52:52.711Z,99.02
2023-03-24T04:53:52.721Z,99.02
2023-03-24T04:54:52.708Z,98.82
2023-03-24T04:55:52.693Z,98.72
2023-03-24T04:56:52.785Z,98.11
2023-03-24T04:57:52.690Z,97.65
2023-03-24T04:58:52.684Z,98.88
2023-03-24T04:59:52.680Z,98.93
2023-03-24T05:00:52.694Z,98.88
2023-03-24T05:01:52.658Z,98.16
2023-03-24T05:02:52.687Z,98.93
2023-03-24T05:03:52.743Z,97.55
2023-03-24T05:04:52.648Z,97.55
2023-03-24T05:05:52.628Z,98.06
2023-03-24T05:06:52.628Z,98.27
2023-03-24T05:07:52.624Z,97.96
2023-03-24T05:08:52.642Z,98.06
2023-03-24T05:09:52.625Z,98.11
2023-03-24T05:10:52.609Z,97.75
2023-03-24T05:11:52.593Z,97.24
2023-03-24T05:12:52.585Z,97.24
2023-03-24T05:13:52.572Z,97.80
2023-03-24T05:14:52.584Z,97.75
2023-03-24T05:15:52.564Z,97.24
2023-03-24T05:16:52.630Z,97.96
2023-03-24T05:17:52.634Z,97.29
2023-03-24T05:18:53.552Z,97.90
2023-03-24T05:19:52.557Z,98.21
2023-03-24T05:20:52.580Z,97.80
2023-03-24T05:21:52.528Z,97.75
2023-03-24T05:22:52.514Z,98.00
2023-03-24T05:23:52.527Z,97.80
2023-03-24T05:24:52.535Z,98.11
2023-03-24T05:25:52.508Z,96.84
2023-03-24T05:26:52.527Z,97.14
2023-03-24T05:27:52.504Z,96.84
2023-03-24T05:28:52.471Z,97.14
2023-03-24T05:29:52.463Z,96.63
2023-03-24T05:30:52.579Z,97.55
2023-03-24T05:31:52.471Z,97.34
2023-03-24T05:32:52.533Z,96.22
2023-03-24T05:33:52.458Z,97.24
2023-03-24T05:34:52.481Z,96.53
2023-03-24T05:35:52.486Z,97.45
2023-03-24T05:36:52.409Z,96.94
2023-03-24T05:37:52.411Z,95.77
2023-03-24T05:38:52.418Z,96.08
2023-03-24T05:39:54.781Z,95.97
2023-03-24T05:40:52.401Z,96.02
2023-03-24T05:41:53.398Z,95.67
2023-03-24T05:42:52.385Z,95.26
2023-03-24T05:43:52.372Z,95.67
2023-03-24T05:44:52.372Z,95.06
2023-03-24T05:45:52.393Z,95.87
2023-03-24T05:46:52.351Z,94.24
2023-03-24T05:47:52.364Z,93.93
2023-03-24T05:48:52.378Z,94.09
2023-03-24T05:49:52.341Z,94.09
2023-03-24T05:50:52.352Z,94.60
2023-03-24T05:51:52.317Z,94.04
2023-03-24T05:52:52.340Z,94.24
2023-03-24T05:53:52.302Z,93.48
2023-03-24T05:54:52.404Z,93.89
2023-03-24T05:55:52.311Z,93.28
2023-03-24T05:56:52.467Z,92.72
2023-03-24T05:57:52.303Z,93.07
2023-03-24T05:58:52.263Z,93.18
2023-03-24T05:59:52.270Z,93.13
2023-03-24T06:00:52.292Z,93.44
2023-03-24T06:01:52.247Z,92.93
2023-03-24T06:02:52.329Z,92.97
2023-03-24T06:03:52.378Z,93.07
2023-03-24T06:04:52.249Z,93.03
2023-03-24T06:05:52.221Z,92.97
2023-03-24T06:06:52.212Z,92.63
2023-03-24T06:07:52.212Z,93.03
2023-03-24T06:08:52.205Z,93.03
2023-03-24T06:09:52.204Z,92.63
2023-03-24T06:10:52.212Z,92.93
2023-03-24T06:11:52.181Z,92.87
2023-03-24T06:12:52.202Z,92.72
2023-03-24T06:13:52.175Z,92.63
2023-03-24T06:14:52.163Z,93.13
2023-03-24T06:15:52.204Z,92.97
2023-03-24T06:16:52.152Z,92.97
2023-03-24T06:17:52.204Z,93.13
2023-03-24T06:18:52.136Z,93.48
2023-03-24T06:19:52.137Z,92.32
2023-03-24T06:20:52.360Z,92.72
2023-03-24T06:21:52.116Z,92.93
2023-03-24T06:22:52.112Z,92.83
2023-03-24T06:23:52.094Z,92.83
2023-03-24T06:24:52.103Z,93.24
2023-03-24T06:25:52.113Z,92.83
2023-03-24T06:26:52.085Z,92.63
2023-03-24T06:27:52.088Z,92.63
2023-03-24T06:28:52.058Z,92.83
2023-03-24T06:29:52.064Z,93.13
2023-03-24T06:30:52.087Z,93.13
2023-03-24T06:31:52.040Z,92.83
2023-03-24T06:32:53.127Z,92.83
2023-03-24T06:33:52.033Z,93.33
2023-03-24T06:34:52.021Z,92.52
2023-03-24T06:35:52.072Z,92.22
2023-03-24T06:36:52.008Z,91.87
2023-03-24T06:37:52.002Z,91.81
2023-03-24T06:38:51.996Z,92.42
2023-03-24T06:39:51.985Z,92.42
2023-03-24T06:40:51.980Z,92.52
2023-03-24T06:41:51.990Z,92.38
2023-03-24T06:42:51.977Z,92.63
2023-03-24T06:43:51.966Z,92.52
2023-03-24T06:44:51.962Z,92.32
2023-03-24T06:45:51.952Z,92.07
2023-03-24T06:46:52.019Z,92.11
2023-03-24T06:47:53.001Z,92.11
2023-03-24T06:48:51.950Z,91.97
2023-03-24T06:49:51.919Z,92.11
2023-03-24T06:50:51.919Z,92.11
2023-03-24T06:51:51.916Z,92.38
2023-03-24T06:52:51.904Z,92.63
2023-03-24T06:53:51.913Z,92.58
2023-03-24T06:54:51.889Z,92.68
2023-03-24T06:55:51.891Z,92.63
2023-03-24T06:56:51.962Z,92.68
2023-03-24T06:57:51.879Z,92.48
2023-03-24T06:58:51.881Z,92.68
2023-03-24T06:59:51.866Z,93.03
2023-03-24T07:00:51.856Z,93.54
2023-03-24T07:01:51.925Z,93.74
2023-03-24T07:02:51.915Z,94.05
2023-03-24T07:03:51.857Z,93.44
2023-03-24T07:04:51.832Z,93.44
2023-03-24T07:05:51.830Z,94.15
2023-03-24T07:07:10.841Z,93.64
2023-03-24T07:08:27.861Z,93.54
2023-03-24T07:08:53.825Z,93.33
2023-03-24T07:09:51.813Z,93.54
2023-03-24T07:10:51.784Z,93.60
2023-03-24T07:11:51.780Z,93.70
2023-03-24T07:12:51.777Z,93.44
2023-03-24T07:13:51.760Z,93.24
2023-03-24T07:14:51.776Z,93.44
2023-03-24T07:15:51.798Z,93.74
2023-03-24T07:16:51.749Z,93.44
2023-03-24T07:17:51.772Z,94.52
2023-03-24T07:18:52.753Z,95.37
2023-03-24T07:19:51.743Z,95.58
2023-03-24T07:20:51.759Z,96.19
2023-03-24T07:21:51.704Z,96.84
2023-03-24T07:22:51.712Z,97.36
2023-03-24T07:23:51.724Z,97.36
2023-03-24T07:24:53.619Z,97.05
2023-03-24T07:25:51.714Z,97.77
2023-03-24T07:26:51.706Z,98.63
2023-03-24T07:27:51.681Z,97.71
2023-03-24T07:28:51.696Z,95.67
2023-03-24T07:29:51.671Z,94.29
2023-03-24T07:30:53.885Z,94.75
2023-03-24T07:31:51.683Z,94.95
2023-03-24T07:32:51.692Z,95.26
2023-03-24T07:33:51.672Z,95.87
2023-03-24T07:34:51.644Z,97.34
2023-03-24T07:35:51.720Z,95.61
2023-03-24T07:36:51.645Z,95.10
2023-03-24T07:37:51.619Z,95.72
2023-03-24T07:38:51.620Z,95.67
2023-03-24T07:39:51.607Z,95.87
2023-03-24T07:40:51.617Z,95.16
2023-03-24T07:41:51.625Z,95.06
2023-03-24T07:42:51.604Z,95.16
2023-03-24T07:43:51.586Z,95.57
2023-03-24T07:44:51.594Z,95.87
2023-03-24T07:45:51.632Z,95.57
2023-03-24T07:46:51.566Z,94.91
2023-03-24T07:47:51.628Z,93.52
2023-03-24T07:48:51.576Z,93.22
2023-03-24T07:49:52.561Z,92.26
2023-03-24T07:50:51.715Z,92.87
2023-03-24T07:51:51.537Z,90.53
2023-03-24T07:52:51.560Z,90.83
2023-03-24T07:53:51.585Z,90.48
2023-03-24T07:54:51.519Z,89.87
2023-03-24T07:55:51.677Z,89.97
2023-03-24T07:56:52.613Z,89.77
2023-03-24T07:57:51.546Z,90.08
2023-03-24T07:58:51.554Z,89.00
2023-03-24T07:59:51.486Z,89.40
2023-03-24T08:00:51.689Z,88.28
2023-03-24T08:01:54.872Z,88.90
2023-03-24T08:02:53.819Z,88.34
2023-03-24T08:03:51.683Z,85.74
2023-03-24T08:04:51.490Z,86.15
2023-03-24T08:05:51.459Z,85.22
2023-03-24T08:06:51.463Z,85.02
2023-03-24T08:07:51.443Z,84.41
2023-03-24T08:08:51.455Z,84.20
2023-03-24T08:09:51.432Z,84.27
2023-03-24T08:10:51.441Z,83.76
2023-03-24T08:11:51.416Z,84.17
2023-03-24T08:12:52.470Z,82.74
2023-03-24T08:13:51.409Z,82.70
2023-03-24T08:14:51.443Z,82.84
2023-03-24T08:15:51.396Z,82.43
2023-03-24T08:16:51.409Z,81.01
2023-03-24T08:17:51.436Z,82.03
2023-03-24T08:18:51.375Z,80.91
2023-03-24T08:20:00.161Z,80.56
2023-03-24T08:20:53.362Z,80.29
2023-03-24T08:21:51.362Z,82.03
2023-03-24T08:22:51.351Z,80.66
2023-03-24T08:23:51.344Z,82.09
2023-03-24T08:24:51.345Z,81.62
2023-03-24T08:25:51.326Z,81.68
2023-03-24T08:26:51.357Z,80.87
2023-03-24T08:27:51.318Z,82.09
2023-03-24T08:28:51.314Z,81.38
2023-03-24T08:29:51.312Z,82.43
2023-03-24T08:30:51.600Z,81.99
2023-03-24T08:31:51.288Z,81.93
2023-03-24T08:32:51.478Z,80.80
2023-03-24T08:33:51.281Z,81.41
2023-03-24T08:34:51.289Z,81.62
2023-03-24T08:35:51.564Z,82.23
2023-03-24T08:36:51.286Z,82.33
2023-03-24T08:37:51.291Z,80.70
2023-03-24T08:38:51.323Z,81.31
2023-03-24T08:39:51.240Z,81.11
2023-03-24T08:40:51.271Z,80.50
2023-03-24T08:41:51.231Z,80.09
2023-03-24T08:42:51.233Z,81.96
2023-03-24T08:43:51.237Z,81.66
2023-03-24T08:44:51.239Z,80.94
2023-03-24T08:45:51.319Z,81.66
2023-03-24T08:46:51.227Z,81.56
2023-03-24T08:47:51.206Z,82.17
2023-03-24T08:48:51.225Z,81.15
2023-03-24T08:49:51.208Z,81.82
2023-03-24T08:50:51.168Z,80.84
2023-03-24T08:51:51.177Z,81.21
2023-03-24T08:52:51.186Z,82.03
2023-03-24T08:53:51.143Z,81.86
2023-03-24T08:54:51.165Z,82.33
2023-03-24T08:55:51.142Z,82.78
2023-03-24T08:56:51.228Z,81.31
2023-03-24T08:57:51.152Z,79.38
2023-03-24T08:58:51.122Z,80.70
2023-03-24T08:59:51.486Z,81.82
2023-03-24T09:00:52.107Z,82.33
2023-03-24T09:01:51.197Z,81.17
2023-03-24T09:02:51.124Z,81.79
2023-03-24T09:03:51.120Z,81.68
2023-03-24T09:04:51.105Z,80.36
2023-03-24T09:05:51.128Z,81.27
2023-03-24T09:06:51.073Z,80.97
2023-03-24T09:07:51.064Z,81.38
2023-03-24T09:08:51.053Z,80.16
2023-03-24T09:09:51.060Z,81.79
2023-03-24T09:10:51.091Z,80.77
2023-03-24T09:11:51.045Z,79.95
2023-03-24T09:12:51.041Z,79.75
2023-03-24T09:13:51.031Z,79.44
2023-03-24T09:14:51.051Z,80.16
2023-03-24T09:15:51.548Z,81.17
2023-03-24T09:16:51.000Z,81.79
2023-03-24T09:17:51.046Z,80.97
2023-03-24T09:18:51.003Z,82.70
2023-03-24T09:19:51.009Z,82.70
2023-03-24T09:20:51.182Z,83.31
2023-03-24T09:21:50.973Z,82.66
2023-03-24T09:22:50.973Z,83.13
2023-03-24T09:23:50.970Z,82.38
2023-03-24T09:24:51.025Z,82.73
2023-03-24T09:25:51.080Z,82.82
2023-03-24T09:26:50.952Z,82.93
2023-03-24T09:27:50.940Z,81.85
2023-03-24T09:28:50.943Z,83.27
2023-03-24T09:29:50.941Z,84.03
2023-03-24T09:30:51.126Z,84.94
2023-03-24T09:31:50.994Z,86.16
2023-03-24T09:32:50.918Z,85.66
2023-03-24T09:33:50.904Z,84.90
2023-03-24T09:34:50.892Z,85.00
2023-03-24T09:35:50.988Z,83.68
2023-03-24T09:36:50.893Z,83.58
2023-03-24T09:37:50.874Z,84.50
2023-03-24T09:38:50.878Z,86.02
2023-03-24T09:39:50.859Z,86.68
2023-03-24T09:40:50.879Z,88.20
2023-03-24T09:41:50.862Z,88.14
2023-03-24T09:42:50.852Z,88.34
2023-03-24T09:43:50.861Z,88.84
2023-03-24T09:44:50.836Z,89.25
2023-03-24T09:45:50.825Z,90.41
2023-03-24T09:46:50.872Z,90.81
2023-03-24T09:47:50.812Z,90.81
2023-03-24T09:48:50.806Z,91.78
2023-03-24T09:49:50.803Z,91.78
2023-03-24T09:50:50.813Z,91.98
2023-03-24T09:51:50.780Z,90.45
2023-03-24T09:52:51.780Z,91.06
2023-03-24T09:53:50.823Z,91.11
2023-03-24T09:54:50.775Z,91.61
2023-03-24T09:55:50.780Z,91.52
2023-03-24T09:56:51.731Z,91.41
2023-03-24T09:57:51.758Z,91.86
2023-03-24T09:58:50.746Z,92.37
2023-03-24T09:59:50.760Z,91.56
2023-03-24T10:00:51.023Z,92.37
2023-03-24T10:01:50.741Z,92.32
2023-03-24T10:02:52.571Z,92.32
2023-03-24T10:03:51.839Z,92.72
2023-03-24T10:04:50.759Z,92.83
2023-03-24T10:05:50.794Z,93.13
2023-03-24T10:06:50.699Z,93.03
2023-03-24T10:07:50.904Z,93.24
2023-03-24T10:08:51.697Z,92.62
2023-03-24T10:09:50.676Z,92.93
2023-03-24T10:10:50.676Z,93.03
2023-03-24T10:11:50.660Z,92.83
2023-03-24T10:12:50.675Z,93.33
2023-03-24T10:13:50.658Z,92.87
2023-03-24T10:14:50.656Z,92.66
2023-03-24T10:15:50.779Z,92.46
2023-03-24T10:16:51.646Z,92.72
2023-03-24T10:17:50.679Z,92.72
2023-03-24T10:18:50.649Z,93.03
2023-03-24T10:19:50.637Z,93.24
2023-03-24T10:20:50.616Z,93.44
2023-03-24T10:21:50.609Z,92.83
2023-03-24T10:22:50.603Z,92.21
2023-03-24T10:23:50.608Z,92.68
2023-03-24T10:24:50.593Z,92.93
2023-03-24T10:25:50.707Z,92.37
2023-03-24T10:26:50.573Z,91.80
2023-03-24T10:27:50.570Z,91.19
2023-03-24T10:28:50.567Z,91.66
2023-03-24T10:29:50.561Z,91.46
2023-03-24T10:30:50.551Z,91.25
2023-03-24T10:31:50.592Z,91.00
2023-03-24T10:32:50.576Z,90.96
2023-03-24T10:33:50.540Z,90.25
2023-03-24T10:34:50.521Z,89.23
2023-03-24T10:35:50.716Z,88.61
2023-03-24T10:36:50.524Z,89.32
2023-03-24T10:37:50.503Z,88.61
2023-03-24T10:38:50.533Z,89.02
2023-03-24T10:39:50.504Z,88.92
2023-03-24T10:40:50.484Z,88.51
2023-03-24T10:41:50.486Z,89.23
2023-03-24T10:43:06.788Z,90.14
2023-03-24T10:43:51.490Z,89.32
2023-03-24T10:44:50.479Z,88.55
2023-03-24T10:45:50.680Z,89.12
2023-03-24T10:46:50.461Z,88.41
2023-03-24T10:47:50.484Z,88.61
2023-03-24T10:48:50.437Z,88.10
2023-03-24T10:49:50.449Z,88.31
2023-03-24T10:50:50.437Z,88.37
2023-03-24T10:51:50.421Z,87.51
2023-03-24T10:52:50.412Z,87.20
2023-03-24T10:53:50.417Z,87.82
2023-03-24T10:54:50.401Z,86.69
2023-03-24T10:55:50.553Z,87.14
2023-03-24T10:56:50.475Z,88.51
2023-03-24T10:57:50.424Z,88.10
2023-03-24T10:58:50.394Z,89.02
2023-03-24T10:59:50.386Z,88.71
2023-03-24T11:00:50.420Z,88.31
2023-03-24T11:01:50.380Z,88.51
2023-03-24T11:02:50.419Z,88.17
2023-03-24T11:03:50.355Z,88.26
2023-03-24T11:04:50.335Z,88.32
2023-03-24T11:05:50.504Z,87.92
2023-03-24T11:06:50.330Z,87.82
2023-03-24T11:07:50.335Z,86.65
2023-03-24T11:08:50.322Z,86.59
2023-03-24T11:09:50.300Z,87.00
2023-03-24T11:10:51.305Z,88.43
2023-03-24T11:11:50.288Z,86.69
2023-03-24T11:12:50.321Z,86.15
2023-03-24T11:13:50.280Z,85.68
2023-03-24T11:14:50.275Z,86.18
2023-03-24T11:15:50.388Z,85.33
2023-03-24T11:16:50.308Z,86.49
2023-03-24T11:17:50.293Z,85.88
2023-03-24T11:18:50.237Z,87.30
2023-03-24T11:19:50.233Z,86.59
2023-03-24T11:20:50.232Z,86.59
2023-03-24T11:21:50.251Z,87.00
2023-03-24T11:22:50.210Z,85.88
2023-03-24T11:23:50.219Z,86.49
2023-03-24T11:24:50.238Z,87.20
2023-03-24T11:25:50.356Z,86.59
2023-03-24T11:26:50.197Z,86.39
2023-03-24T11:27:50.187Z,86.53
2023-03-24T11:28:50.199Z,86.43
2023-03-24T11:29:50.184Z,86.22
2023-03-24T11:30:50.196Z,86.12
2023-03-24T11:31:50.164Z,86.33
2023-03-24T11:32:50.197Z,85.47
2023-03-24T11:33:50.151Z,83.57
2023-03-24T11:34:50.137Z,83.26
2023-03-24T11:35:56.038Z,83.53
2023-03-24T11:36:52.229Z,84.25
2023-03-24T11:37:50.159Z,83.43
2023-03-24T11:38:50.136Z,83.18
2023-03-24T11:39:50.125Z,82.80
2023-03-24T11:40:50.108Z,81.58
2023-03-24T11:41:50.107Z,81.27
2023-03-24T11:42:50.097Z,80.56
2023-03-24T11:43:50.089Z,80.87
2023-03-24T11:44:50.087Z,82.33
2023-03-24T11:45:50.209Z,82.03
2023-03-24T11:46:50.098Z,82.54
2023-03-24T11:47:50.079Z,82.07
2023-03-24T11:48:50.058Z,82.98
2023-03-24T11:49:50.064Z,82.98
2023-03-24T11:50:50.049Z,83.59
2023-03-24T11:51:50.059Z,83.65
2023-03-24T11:52:50.047Z,83.45
2023-03-24T11:53:50.021Z,82.54
2023-03-24T11:54:50.016Z,81.38
2023-03-24T11:55:50.147Z,81.99
2023-03-24T11:56:50.054Z,79.56
2023-03-24T11:57:50.018Z,76.68
2023-03-24T11:58:50.009Z,76.03
2023-03-24T11:59:49.981Z,75.22
2023-03-24T12:00:49.975Z,73.22
2023-03-24T12:01:49.961Z,72.61
2023-03-24T12:02:50.128Z,75.18
2023-03-24T12:03:50.066Z,74.41
2023-03-24T12:04:49.950Z,74.74
2023-03-24T12:05:51.019Z,74.68
2023-03-24T12:06:50.932Z,76.10
2023-03-24T12:07:49.936Z,76.14
2023-03-24T12:08:49.935Z,74.24
2023-03-24T12:09:49.923Z,71.40
2023-03-24T12:10:49.896Z,73.90
2023-03-24T12:11:49.890Z,72.01
2023-03-24T12:12:49.897Z,69.34
2023-03-24T12:13:49.900Z,68.54
2023-03-24T12:14:49.883Z,69.42
2023-03-24T12:15:50.039Z,68.74
2023-03-24T12:16:49.861Z,69.78
2023-03-24T12:17:49.879Z,68.94
2023-03-24T12:18:49.841Z,69.61
2023-03-24T12:19:49.937Z,68.70
2023-03-24T12:20:49.837Z,68.54
2023-03-24T12:21:49.826Z,69.01
2023-03-24T12:22:49.822Z,68.63
2023-03-24T12:23:49.816Z,68.60
2023-03-24T12:24:49.843Z,68.91
2023-03-24T12:25:50.016Z,65.01
2023-03-24T12:26:49.787Z,67.49
2023-03-24T12:27:49.805Z,65.92
2023-03-24T12:28:49.789Z,63.93
2023-03-24T12:29:49.777Z,59.57
2023-03-24T12:30:49.896Z,61.37
2023-03-24T12:31:49.837Z,64.13
2023-03-24T12:32:49.792Z,65.54
2023-03-24T12:33:49.757Z,65.65
2023-03-24T12:34:49.743Z,65.35
2023-03-24T12:35:49.984Z,66.72
2023-03-24T12:36:49.735Z,67.63
2023-03-24T12:37:49.713Z,69.41
2023-03-24T12:38:49.724Z,68.64
2023-03-24T12:39:50.700Z,65.01
2023-03-24T12:40:49.692Z,64.17
2023-03-24T12:41:49.693Z,67.60
2023-03-24T12:42:49.704Z,69.01
2023-03-24T12:43:49.693Z,69.61
2023-03-24T12:44:49.673Z,70.12
2023-03-24T12:45:49.858Z,67.90
2023-03-24T12:46:51.468Z,66.12
2023-03-24T12:47:49.799Z,66.52
2023-03-24T12:48:49.648Z,67.60
2023-03-24T12:49:49.631Z,67.66
2023-03-24T12:50:49.628Z,69.85
2023-03-24T12:51:49.738Z,71.30
2023-03-24T12:52:58.073Z,70.12